Time;durP1;ratioP1;P1;durP2;ratioP2;P2;SDS_P1;SDS_P2;PMS_P1;PMS_P2;Temp;Humidity;BMP_temperature;BMP_pressure;BME280_temperature;BME280_humidity;BME280_pressure;Samples;Min_cycle;Max_cycle;Signal;HPM_P1;HPM_P2
2024/01/17 00:00:01;;;;;;;23.27;6.75;;;;;;;;;;4916421;29;20028;-66
2024/01/17 00:02:27;;;;;;;16.77;6.40;;;;;;;;;;4916564;29;20099;-66
2024/01/17 00:04:54;;;;;;;17.30;6.13;;;;;;;;;;4916732;29;20116;-66
2024/01/17 00:07:20;;;;;;;14.45;6.93;;;;;;;;;;4915709;29;20493;-67
2024/01/17 00:09:47;;;;;;;14.75;7.05;;;;;;;;;;4916639;29;20036;-66
2024/01/17 00:12:12;;;;;;;17.45;6.63;;;;;;;;;;4917057;29;20058;-65
2024/01/17 00:14:38;;;;;;;21.08;6.70;;;;;;;;;;4913745;29;20107;-65
2024/01/17 00:17:03;;;;;;;17.98;6.55;;;;;;;;;;4915721;29;20067;-65
2024/01/17 00:19:31;;;;;;;15.70;6.47;;;;;;;;;;4916207;29;20465;-65
2024/01/17 10:24:52;;;;;;;5.35;3.40;;;;;;;;;;4871221;29;20072;-67
2024/01/17 10:27:18;;;;;;;4.38;3.35;;;;;;;;;;4871347;29;20041;-67
2024/01/17 10:29:43;;;;;;;5.78;3.55;;;;;;;;;;4871693;29;20110;-68
2024/01/17 10:32:09;;;;;;;5.50;3.58;;;;;;;;;;4870755;29;20065;-68
2024/01/17 10:34:38;;;;;;;4.63;3.70;;;;;;;;;;4872170;29;20047;-69
2024/01/17 10:37:04;;;;;;;4.30;3.58;;;;;;;;;;4871858;29;20047;-69
2024/01/17 10:39:30;;;;;;;5.72;3.80;;;;;;;;;;4870158;29;20038;-67
2024/01/17 10:41:57;;;;;;;7.18;3.70;;;;;;;;;;4871944;29;20025;-68
2024/01/17 10:44:25;;;;;;;3.80;3.33;;;;;;;;;;4871684;29;20045;-68
2024/01/17 10:46:51;;;;;;;4.47;3.28;;;;;;;;;;4867711;29;20065;-67
2024/01/17 10:49:21;;;;;;;4.55;3.70;;;;;;;;;;4862283;29;20029;-68
2024/01/17 10:52:02;;;;;;;6.05;3.58;;;;;;;;;;4849269;29;20508;-68
2024/01/17 10:54:49;;;;;;;4.18;3.30;;;;;;;;;;4880643;29;20037;-67
2024/01/17 10:57:15;;;;;;;5.15;3.22;;;;;;;;;;4870005;29;20045;-68
2024/01/17 10:59:47;;;;;;;4.28;3.33;;;;;;;;;;4877476;29;20028;-68
2024/01/17 11:02:21;;;;;;;5.80;3.97;;;;;;;;;;4877033;29;20027;-67
2024/01/17 11:04:53;;;;;;;4.75;3.30;;;;;;;;;;4879227;29;20060;-67
2024/01/17 11:07:19;;;;;;;3.58;2.97;;;;;;;;;;4878641;29;20096;-68
2024/01/17 11:09:48;;;;;;;4.43;3.58;;;;;;;;;;4875977;29;20033;-68
2024/01/17 11:12:15;;;;;;;4.15;3.13;;;;;;;;;;4874351;29;20481;-68
2024/01/17 11:14:43;;;;;;;3.88;2.90;;;;;;;;;;4874753;29;20120;-68
2024/01/17 11:17:10;;;;;;;6.53;3.45;;;;;;;;;;4875079;29;20033;-68
2024/01/17 11:19:37;;;;;;;3.65;3.13;;;;;;;;;;4877319;29;20110;-68
2024/01/17 11:22:03;;;;;;;6.68;3.45;;;;;;;;;;4872246;29;20075;-68
2024/01/17 11:24:40;;;;;;;5.75;3.50;;;;;;;;;;4876005;29;20072;-68
2024/01/17 11:27:15;;;;;;;4.75;3.33;;;;;;;;;;4875653;29;20025;-67
2024/01/17 11:30:05;;;;;;;7.05;3.67;;;;;;;;;;4878579;29;20058;-67
2024/01/17 11:32:52;;;;;;;6.40;3.22;;;;;;;;;;4880408;29;20455;-67
2024/01/17 11:35:47;;;;;;;4.55;3.40;;;;;;;;;;4880111;29;20036;-65
2024/01/17 11:38:25;;;;;;;5.28;3.30;;;;;;;;;;4879871;29;20059;-66
2024/01/17 11:41:00;;;;;;;32.00;10.27;;;;;;;;;;4879712;29;20057;-65
2024/01/17 11:43:35;;;;;;;8.20;6.53;;;;;;;;;;4879052;29;20064;-64
2024/01/17 11:46:04;;;;;;;10.48;4.68;;;;;;;;;;4879270;29;20181;-64
2024/01/17 11:48:31;;;;;;;9.07;4.17;;;;;;;;;;4879330;29;20033;-64
2024/01/17 11:51:09;;;;;;;9.10;5.10;;;;;;;;;;4878668;29;20104;-64
2024/01/17 11:53:35;;;;;;;9.73;5.60;;;;;;;;;;4879809;29;20028;-64
2024/01/17 11:56:05;;;;;;;11.52;6.40;;;;;;;;;;4879858;29;20431;-60
2024/01/17 11:58:46;;;;;;;9.50;5.53;;;;;;;;;;4878937;29;20363;-64
2024/01/17 12:01:30;;;;;;;10.40;5.50;;;;;;;;;;4879778;29;20637;-64
2024/01/17 12:03:56;;;;;;;9.35;5.20;;;;;;;;;;4879937;29;20044;-64
2024/01/17 12:06:21;;;;;;;8.38;5.53;;;;;;;;;;4880057;29;20036;-64
2024/01/17 12:08:56;;;;;;;9.50;5.70;;;;;;;;;;4879604;29;20029;-64
2024/01/17 12:11:23;;;;;;;9.75;5.88;;;;;;;;;;4879692;29;20024;-64
2024/01/17 12:13:52;;;;;;;6.55;4.80;;;;;;;;;;4879434;29;20025;-64
2024/01/17 12:16:21;;;;;;;8.52;5.35;;;;;;;;;;4879415;29;20025;-64
2024/01/17 12:18:56;;;;;;;10.38;5.13;;;;;;;;;;4879705;29;20033;-64
2024/01/17 12:21:22;;;;;;;7.47;5.35;;;;;;;;;;4879535;29;20157;-64
2024/01/17 12:23:47;;;;;;;12.93;5.45;;;;;;;;;;4879080;29;20124;-64
2024/01/17 12:26:13;;;;;;;10.23;5.30;;;;;;;;;;4878361;29;20125;-64
2024/01/17 12:28:39;;;;;;;11.98;5.53;;;;;;;;;;4879138;29;20029;-64
2024/01/17 12:31:07;;;;;;;7.30;5.50;;;;;;;;;;4879475;29;20084;-64
2024/01/17 12:33:34;;;;;;;8.15;5.07;;;;;;;;;;4879485;29;20065;-64
2024/01/17 12:36:00;;;;;;;9.32;4.93;;;;;;;;;;4879312;29;20422;-64
2024/01/17 12:38:30;;;;;;;8.15;5.38;;;;;;;;;;4879336;29;20036;-64
2024/01/17 12:40:57;;;;;;;9.25;4.97;;;;;;;;;;4879536;29;20093;-64
2024/01/17 12:43:25;;;;;;;8.55;5.50;;;;;;;;;;4879237;29;20029;-64
2024/01/17 12:45:52;;;;;;;7.63;5.05;;;;;;;;;;4878937;29;20057;-64
2024/01/17 12:48:18;;;;;;;7.97;5.22;;;;;;;;;;4878990;29;20037;-64
2024/01/17 12:50:54;;;;;;;6.80;5.18;;;;;;;;;;4879486;29;20029;-64
2024/01/17 12:53:27;;;;;;;7.63;5.20;;;;;;;;;;4879004;29;20033;-64
2024/01/17 12:55:53;;;;;;;6.35;5.40;;;;;;;;;;4878781;29;20029;-64
2024/01/17 12:58:19;;;;;;;6.85;5.20;;;;;;;;;;4879910;29;20025;-64
2024/01/17 13:00:47;;;;;;;7.68;5.05;;;;;;;;;;4879307;29;20033;-64
2024/01/17 13:03:13;;;;;;;6.97;5.45;;;;;;;;;;4879112;29;20017;-64
2024/01/17 13:05:39;;;;;;;7.35;5.35;;;;;;;;;;4879382;29;20037;-65
2024/01/17 13:08:21;;;;;;;8.15;5.60;;;;;;;;;;4879171;29;20040;-64
2024/01/17 13:10:47;;;;;;;7.93;5.72;;;;;;;;;;4879068;29;20068;-64
2024/01/17 13:13:18;;;;;;;6.78;4.75;;;;;;;;;;4878938;29;20029;-64
2024/01/17 13:15:48;;;;;;;7.60;5.35;;;;;;;;;;4878796;29;20033;-64
2024/01/17 13:18:13;;;;;;;5.80;4.75;;;;;;;;;;4879323;29;20029;-64
2024/01/17 13:20:39;;;;;;;7.15;5.05;;;;;;;;;;4879524;29;20474;-64
2024/01/17 13:23:05;;;;;;;7.43;5.38;;;;;;;;;;4878734;29;20462;-64
2024/01/17 13:25:32;;;;;;;8.73;5.50;;;;;;;;;;4878869;29;20032;-64
2024/01/17 13:28:02;;;;;;;7.60;5.00;;;;;;;;;;4879040;29;20029;-64
2024/01/17 13:30:34;;;;;;;6.38;4.82;;;;;;;;;;4878601;29;20031;-64
2024/01/17 13:33:01;;;;;;;9.07;5.72;;;;;;;;;;4879126;29;20120;-63
2024/01/17 13:35:26;;;;;;;6.63;4.70;;;;;;;;;;4878629;29;20386;-64
2024/01/17 13:37:52;;;;;;;8.80;5.45;;;;;;;;;;4877505;29;20025;-64
2024/01/17 13:40:22;;;;;;;7.53;5.03;;;;;;;;;;4878920;29;20029;-64
2024/01/17 13:42:48;;;;;;;;;;;;;;;;;;4880170;29;20036;-64
2024/01/17 13:45:13;;;;;;;7.22;5.15;;;;;;;;;;4878477;29;19911;-64
2024/01/17 13:47:41;;;;;;;7.30;5.40;;;;;;;;;;4878520;29;20033;-64
2024/01/17 13:50:21;;;;;;;7.43;5.03;;;;;;;;;;4878991;29;20085;-64
2024/01/17 13:52:51;;;;;;;6.35;5.15;;;;;;;;;;4878503;29;20055;-64
2024/01/17 13:55:22;;;;;;;8.90;5.78;;;;;;;;;;4878295;29;20088;-64
2024/01/17 13:57:48;;;;;;;8.25;5.40;;;;;;;;;;4875099;29;20033;-64
2024/01/17 14:00:15;;;;;;;8.15;5.25;;;;;;;;;;4876360;29;20120;-64
2024/01/17 14:02:42;;;;;;;9.55;5.35;;;;;;;;;;4879642;29;20025;-64
2024/01/17 14:05:11;;;;;;;7.55;5.00;;;;;;;;;;4881915;29;20021;-64
2024/01/17 14:07:38;;;;;;;8.38;5.07;;;;;;;;;;4881662;29;20021;-64
2024/01/17 14:10:09;;;;;;;7.40;5.38;;;;;;;;;;4881553;29;20041;-65
2024/01/17 14:12:35;;;;;;;6.53;5.10;;;;;;;;;;4882032;29;20108;-64
2024/01/17 14:15:03;;;;;;;9.20;5.10;;;;;;;;;;4880971;29;20033;-64
2024/01/17 14:17:29;;;;;;;7.03;5.25;;;;;;;;;;4881760;29;20029;-64
2024/01/17 14:19:54;;;;;;;6.75;4.95;;;;;;;;;;4881517;29;20116;-64
2024/01/17 14:22:23;;;;;;;6.95;5.20;;;;;;;;;;4880058;29;20128;-65
2024/01/17 14:24:50;;;;;;;6.53;4.88;;;;;;;;;;4872608;29;20056;-64
2024/01/17 14:27:15;;;;;;;8.40;4.85;;;;;;;;;;4879300;29;20040;-65
2024/01/17 14:29:41;;;;;;;7.15;5.28;;;;;;;;;;4862813;29;20025;-63
2024/01/17 14:32:06;;;;;;;6.32;4.82;;;;;;;;;;4879746;29;20544;-65
2024/01/17 14:34:33;;;;;;;6.80;5.10;;;;;;;;;;4875941;29;20478;-67
2024/01/17 14:36:58;;;;;;;6.97;4.68;;;;;;;;;;4877298;29;20037;-64
2024/01/17 14:39:24;;;;;;;6.00;4.53;;;;;;;;;;4879804;29;20048;-64
2024/01/17 14:41:50;;;;;;;6.13;4.80;;;;;;;;;;4879515;29;20112;-63
2024/01/17 14:44:15;;;;;;;7.35;5.38;;;;;;;;;;4879618;29;20062;-65
2024/01/17 14:46:43;;;;;;;6.07;4.65;;;;;;;;;;4878307;29;20040;-65
2024/01/17 14:49:10;;;;;;;7.95;4.70;;;;;;;;;;4878203;29;20089;-66
2024/01/17 14:51:36;;;;;;;6.95;5.32;;;;;;;;;;4880158;29;20037;-65
2024/01/17 14:54:02;;;;;;;7.50;5.32;;;;;;;;;;4878871;29;20364;-64
2024/01/17 14:56:27;;;;;;;9.13;5.43;;;;;;;;;;4877729;29;20043;-64
2024/01/17 14:58:53;;;;;;;6.65;5.10;;;;;;;;;;4879071;29;20029;-64
2024/01/17 15:01:19;;;;;;;6.55;5.10;;;;;;;;;;4879102;29;20121;-64
2024/01/17 15:03:45;;;;;;;6.80;4.95;;;;;;;;;;4878774;29;20129;-65
2024/01/17 15:06:21;;;;;;;6.40;5.10;;;;;;;;;;4878999;29;20069;-65
2024/01/17 15:08:46;;;;;;;6.57;5.15;;;;;;;;;;4879828;29;20089;-65
2024/01/17 15:11:12;;;;;;;5.38;4.70;;;;;;;;;;4878800;29;20028;-65
2024/01/17 15:13:40;;;;;;;6.95;4.93;;;;;;;;;;4877901;29;20534;-64
2024/01/17 15:16:06;;;;;;;9.48;4.85;;;;;;;;;;4878689;29;20115;-64
2024/01/17 15:18:32;;;;;;;6.88;4.63;;;;;;;;;;4879634;29;20009;-64
2024/01/17 15:20:59;;;;;;;7.25;5.10;;;;;;;;;;4878606;29;20032;-65
2024/01/17 15:23:24;;;;;;;6.35;4.78;;;;;;;;;;4877279;29;20112;-65
2024/01/17 15:25:50;;;;;;;6.95;4.95;;;;;;;;;;4879684;29;20037;-65
2024/01/17 15:28:16;;;;;;;5.07;4.50;;;;;;;;;;4878579;29;20029;-65
2024/01/17 15:30:44;;;;;;;10.65;5.15;;;;;;;;;;4878689;29;20036;-65
2024/01/17 15:33:11;;;;;;;8.88;5.53;;;;;;;;;;4879560;29;20112;-65
2024/01/17 15:35:36;;;;;;;6.70;4.90;;;;;;;;;;4878682;29;20124;-64
2024/01/17 15:38:02;;;;;;;5.78;4.53;;;;;;;;;;4878427;29;20534;-65
2024/01/17 15:40:28;;;;;;;7.25;4.82;;;;;;;;;;4878374;29;20390;-65
2024/01/17 15:42:53;;;;;;;6.22;4.80;;;;;;;;;;4878362;29;20474;-64
2024/01/17 15:45:19;;;;;;;8.23;5.07;;;;;;;;;;4878230;29;20036;-64
2024/01/17 15:47:45;;;;;;;7.43;4.95;;;;;;;;;;4878301;29;20033;-65
2024/01/17 15:50:13;;;;;;;6.00;4.38;;;;;;;;;;4878134;29;20554;-65
2024/01/17 15:52:38;;;;;;;8.90;5.00;;;;;;;;;;4878201;29;20103;-65
2024/01/17 15:55:05;;;;;;;6.68;4.63;;;;;;;;;;4878617;29;20506;-65
2024/01/17 15:57:30;;;;;;;6.60;4.47;;;;;;;;;;4878099;29;20044;-65
2024/01/17 15:59:56;;;;;;;7.05;4.50;;;;;;;;;;4877964;29;20025;-65
2024/01/17 16:02:22;;;;;;;5.97;4.90;;;;;;;;;;4878062;29;20085;-65
2024/01/17 16:04:47;;;;;;;6.22;4.65;;;;;;;;;;4878634;29;20077;-65
2024/01/17 16:07:13;;;;;;;7.97;5.18;;;;;;;;;;4878688;29;20032;-65
2024/01/17 16:09:39;;;;;;;6.60;4.63;;;;;;;;;;4877957;29;20033;-65
2024/01/17 16:12:05;;;;;;;5.63;4.72;;;;;;;;;;4878487;29;20483;-65
2024/01/17 16:14:30;;;;;;;6.15;5.00;;;;;;;;;;4878593;29;20028;-65
2024/01/17 16:16:56;;;;;;;5.68;4.68;;;;;;;;;;4878156;29;20039;-67
2024/01/17 16:19:22;;;;;;;6.57;4.75;;;;;;;;;;4878024;29;20047;-67
2024/01/17 16:21:53;;;;;;;8.07;4.85;;;;;;;;;;4878431;29;20438;-67
2024/01/17 16:24:19;;;;;;;7.70;5.35;;;;;;;;;;4878132;29;20073;-67
2024/01/17 16:26:44;;;;;;;5.30;4.50;;;;;;;;;;4877150;29;20057;-67
2024/01/17 16:29:10;;;;;;;6.47;4.57;;;;;;;;;;4877576;29;20025;-67
2024/01/17 16:31:35;;;;;;;7.07;4.80;;;;;;;;;;4878989;29;20029;-67
2024/01/17 16:34:01;;;;;;;6.57;4.97;;;;;;;;;;4877875;29;20033;-66
2024/01/17 16:36:26;;;;;;;6.13;4.90;;;;;;;;;;4878889;29;20045;-66
2024/01/17 16:38:53;;;;;;;6.32;4.53;;;;;;;;;;4879002;29;20401;-66
2024/01/17 16:41:20;;;;;;;6.90;4.82;;;;;;;;;;4879004;29;20070;-66
2024/01/17 16:43:46;;;;;;;8.45;4.93;;;;;;;;;;4878869;29;20029;-66
2024/01/17 16:46:12;;;;;;;6.18;4.80;;;;;;;;;;4878895;29;20481;-66
2024/01/17 16:48:38;;;;;;;7.55;4.93;;;;;;;;;;4879191;29;20435;-66
2024/01/17 16:51:06;;;;;;;8.55;5.30;;;;;;;;;;4878755;29;20395;-65
2024/01/17 16:53:33;;;;;;;6.97;4.85;;;;;;;;;;4879819;29;20036;-65
2024/01/17 16:55:59;;;;;;;6.30;5.13;;;;;;;;;;4878698;29;20479;-65
2024/01/17 16:58:25;;;;;;;7.60;4.97;;;;;;;;;;4878558;29;20064;-66
2024/01/17 17:00:54;;;;;;;6.97;5.07;;;;;;;;;;4878778;29;20513;-66
2024/01/17 17:03:20;;;;;;;7.07;5.43;;;;;;;;;;4878714;29;20024;-66
2024/01/17 17:05:46;;;;;;;7.47;5.57;;;;;;;;;;4878525;29;20205;-66
2024/01/17 17:08:12;;;;;;;7.03;4.88;;;;;;;;;;4879037;29;20143;-67
2024/01/17 17:10:37;;;;;;;7.63;4.80;;;;;;;;;;4877310;29;20116;-66
2024/01/17 17:13:03;;;;;;;8.02;4.85;;;;;;;;;;4878793;29;20431;-66
2024/01/17 17:15:29;;;;;;;9.52;5.00;;;;;;;;;;4878516;29;20395;-65
2024/01/17 17:17:55;;;;;;;6.20;4.43;;;;;;;;;;4846773;29;20113;-65
2024/01/17 17:20:24;;;;;;;6.28;4.65;;;;;;;;;;4878638;29;20033;-65
2024/01/17 17:22:50;;;;;;;6.20;4.97;;;;;;;;;;4878505;29;20072;-66
2024/01/17 17:25:16;;;;;;;11.02;4.80;;;;;;;;;;4878494;29;20029;-65
2024/01/17 17:27:45;;;;;;;5.75;4.78;;;;;;;;;;4878429;29;20443;-66
2024/01/17 17:30:14;;;;;;;9.85;4.88;;;;;;;;;;4878440;29;20546;-65
2024/01/17 17:32:40;;;;;;;6.53;4.80;;;;;;;;;;4878467;29;20029;-66
2024/01/17 17:35:09;;;;;;;5.90;4.40;;;;;;;;;;4878568;29;20055;-65
2024/01/17 17:37:34;;;;;;;7.03;4.50;;;;;;;;;;4879664;29;20113;-65
2024/01/17 17:40:01;;;;;;;8.55;4.70;;;;;;;;;;4882079;29;20107;-65
2024/01/17 17:42:26;;;;;;;5.30;4.53;;;;;;;;;;4881984;29;20512;-66
2024/01/17 17:44:52;;;;;;;6.32;5.10;;;;;;;;;;4881956;29;20057;-66
2024/01/17 17:47:18;;;;;;;7.00;4.50;;;;;;;;;;4882163;29;20032;-66
2024/01/17 17:49:43;;;;;;;7.00;4.95;;;;;;;;;;4882103;29;20033;-66
2024/01/17 17:52:09;;;;;;;8.77;4.65;;;;;;;;;;4881878;29;20417;-66
2024/01/17 17:54:35;;;;;;;7.20;4.90;;;;;;;;;;4881761;29;20029;-66
2024/01/17 17:57:01;;;;;;;5.93;4.57;;;;;;;;;;4881629;29;20047;-66
2024/01/17 17:59:27;;;;;;;6.25;4.88;;;;;;;;;;4882140;29;20116;-66
2024/01/17 18:01:52;;;;;;;6.10;4.55;;;;;;;;;;4881399;29;20103;-66
2024/01/17 18:04:22;;;;;;;7.00;4.80;;;;;;;;;;4881818;29;20032;-66
2024/01/17 18:09:23;;;;;;;7.13;4.97;;;;;;;;;;5889496;23;19906;-62
2024/01/17 18:11:49;;;;;;;6.93;5.15;;;;;;;;;;4919110;29;20036;-62
2024/01/17 18:14:14;;;;;;;7.50;4.70;;;;;;;;;;4919107;29;20378;-64
2024/01/17 18:16:40;;;;;;;8.38;4.78;;;;;;;;;;4918898;29;20436;-62
2024/01/17 18:19:07;;;;;;;8.18;4.90;;;;;;;;;;4919005;29;20032;-63
2024/01/17 18:21:37;;;;;;;5.68;4.78;;;;;;;;;;4918866;29;20028;-62
2024/01/17 18:24:02;;;;;;;5.47;4.60;;;;;;;;;;4918957;29;20393;-62
2024/01/17 18:26:28;;;;;;;7.13;4.65;;;;;;;;;;4918863;29;20028;-62
2024/01/17 18:28:54;;;;;;;7.07;4.72;;;;;;;;;;4918741;29;20488;-63
2024/01/17 18:31:19;;;;;;;7.47;4.55;;;;;;;;;;4918800;29;20502;-62
2024/01/17 18:33:46;;;;;;;6.68;5.00;;;;;;;;;;4918943;29;20032;-62
2024/01/17 18:36:11;;;;;;;6.75;4.65;;;;;;;;;;4918588;29;20036;-62
2024/01/17 18:38:37;;;;;;;8.85;4.63;;;;;;;;;;4918514;29;20074;-62
2024/01/17 18:41:06;;;;;;;5.70;4.80;;;;;;;;;;4918451;29;20027;-62
2024/01/17 18:43:32;;;;;;;7.25;4.57;;;;;;;;;;4918461;29;20024;-62
2024/01/17 18:45:57;;;;;;;6.15;4.30;;;;;;;;;;4918547;29;20066;-62
2024/01/17 18:48:23;;;;;;;7.22;5.07;;;;;;;;;;4918675;29;20028;-63
2024/01/17 18:50:48;;;;;;;10.63;4.50;;;;;;;;;;4901388;29;20465;-70
2024/01/17 18:53:15;;;;;;;6.03;4.65;;;;;;;;;;4918298;29;20032;-62
2024/01/17 18:55:41;;;;;;;5.97;4.45;;;;;;;;;;4917806;29;20039;-64
2024/01/17 18:58:09;;;;;;;5.88;4.55;;;;;;;;;;4899640;29;20032;-63
2024/01/17 19:00:34;;;;;;;5.95;4.47;;;;;;;;;;4898750;29;20520;-62
2024/01/17 19:03:00;;;;;;;5.88;4.35;;;;;;;;;;4915608;29;20119;-63
2024/01/17 19:05:25;;;;;;;6.88;5.00;;;;;;;;;;4916807;29;20099;-62
2024/01/17 19:07:52;;;;;;;5.90;4.50;;;;;;;;;;4900230;29;20039;-62
2024/01/17 19:10:18;;;;;;;5.10;4.28;;;;;;;;;;4915703;29;20135;-61
2024/01/17 19:12:43;;;;;;;5.85;4.63;;;;;;;;;;4916951;29;20111;-62
2024/01/17 19:15:09;;;;;;;7.13;4.50;;;;;;;;;;4915618;29;20496;-63
2024/01/17 19:17:34;;;;;;;6.85;5.03;;;;;;;;;;4917467;29;20392;-62
2024/01/17 19:20:02;;;;;;;6.15;4.50;;;;;;;;;;4916859;29;20079;-62
2024/01/17 19:22:27;;;;;;;8.38;5.10;;;;;;;;;;4930022;29;20020;-63
2024/01/17 19:24:53;;;;;;;7.93;4.70;;;;;;;;;;4936039;29;20087;-62
2024/01/17 19:27:22;;;;;;;5.60;4.43;;;;;;;;;;4936020;29;20063;-63
2024/01/17 19:29:47;;;;;;;4.63;4.10;;;;;;;;;;4936684;29;20051;-62
2024/01/17 19:32:13;;;;;;;7.32;4.40;;;;;;;;;;4936851;29;20071;-62
2024/01/17 19:34:38;;;;;;;6.95;4.55;;;;;;;;;;4936531;29;20036;-62
2024/01/17 19:37:04;;;;;;;6.13;4.32;;;;;;;;;;4936542;29;20068;-62
2024/01/17 19:39:34;;;;;;;7.07;4.50;;;;;;;;;;4936553;29;20024;-63
2024/01/17 19:42:01;;;;;;;5.33;4.77;;;;;;;;;;4936380;29;20042;-63
2024/01/17 19:44:28;;;;;;;6.13;4.63;;;;;;;;;;4936167;29;20488;-63
2024/01/17 19:46:54;;;;;;;7.13;4.53;;;;;;;;;;4935979;29;20059;-64
2024/01/17 19:49:20;;;;;;;5.78;4.32;;;;;;;;;;4936315;29;20031;-62
2024/01/17 19:51:46;;;;;;;7.10;4.47;;;;;;;;;;4936218;29;20031;-62
2024/01/17 19:54:11;;;;;;;5.95;4.72;;;;;;;;;;4936160;29;20024;-61
2024/01/17 19:56:37;;;;;;;7.53;4.60;;;;;;;;;;4936434;29;20381;-61
2024/01/17 19:59:03;;;;;;;5.97;5.00;;;;;;;;;;4924951;29;20123;-63
2024/01/17 20:01:28;;;;;;;8.45;4.40;;;;;;;;;;4915504;29;20032;-60
2024/01/17 20:03:55;;;;;;;8.77;4.70;;;;;;;;;;4915754;29;20028;-61
2024/01/17 20:06:21;;;;;;;5.43;4.32;;;;;;;;;;4910064;29;20025;-61
2024/01/17 20:08:47;;;;;;;5.88;4.45;;;;;;;;;;4898133;29;20079;-62
2024/01/17 20:11:13;;;;;;;5.90;4.82;;;;;;;;;;4897874;29;20151;-64
2024/01/17 20:13:43;;;;;;;5.55;4.60;;;;;;;;;;4897340;29;20498;-63
2024/01/17 20:16:08;;;;;;;6.45;4.60;;;;;;;;;;4897943;29;20035;-62
2024/01/17 20:18:34;;;;;;;5.20;4.30;;;;;;;;;;4898260;29;20033;-63
2024/01/17 20:21:00;;;;;;;6.18;4.70;;;;;;;;;;4900098;29;20070;-62
2024/01/17 20:23:25;;;;;;;5.43;4.45;;;;;;;;;;4906603;29;20028;-62
2024/01/17 20:25:51;;;;;;;7.85;4.43;;;;;;;;;;4882952;29;20429;-63
2024/01/17 20:28:20;;;;;;;5.55;4.45;;;;;;;;;;4897717;29;20108;-62
2024/01/17 20:30:47;;;;;;;6.60;4.30;;;;;;;;;;4897845;29;20028;-61
2024/01/17 20:33:14;;;;;;;7.28;4.70;;;;;;;;;;4897722;29;20056;-62
2024/01/17 20:35:40;;;;;;;6.85;4.45;;;;;;;;;;4897530;29;20033;-62
2024/01/17 20:38:06;;;;;;;5.68;3.92;;;;;;;;;;4897644;29;20112;-61
2024/01/17 20:40:31;;;;;;;5.43;4.38;;;;;;;;;;4897451;29;20099;-61
2024/01/17 20:42:57;;;;;;;5.88;4.10;;;;;;;;;;4897657;29;20031;-61
2024/01/17 20:45:22;;;;;;;6.55;4.40;;;;;;;;;;4897358;29;20035;-61
2024/01/17 20:47:48;;;;;;;6.95;4.00;;;;;;;;;;4897491;29;20044;-61
2024/01/17 20:50:16;;;;;;;6.50;4.45;;;;;;;;;;4897481;29;20031;-71
2024/01/17 20:52:46;;;;;;;5.00;4.10;;;;;;;;;;4880907;29;20370;-63
2024/01/17 20:55:13;;;;;;;5.18;4.40;;;;;;;;;;4897834;29;20509;-63
2024/01/17 20:57:39;;;;;;;5.47;4.28;;;;;;;;;;4897756;29;20123;-62
2024/01/17 21:00:07;;;;;;;6.40;4.35;;;;;;;;;;4897742;29;20449;-62
2024/01/17 21:02:33;;;;;;;6.90;4.60;;;;;;;;;;4897465;29;20037;-62
2024/01/17 21:04:58;;;;;;;6.82;4.80;;;;;;;;;;4897410;29;20114;-74
2024/01/17 21:07:24;;;;;;;7.15;4.40;;;;;;;;;;4897586;29;20032;-63
2024/01/17 21:09:49;;;;;;;4.53;4.07;;;;;;;;;;4897440;29;20502;-61
2024/01/17 21:12:15;;;;;;;6.72;4.40;;;;;;;;;;4900023;29;20481;-61
2024/01/17 21:14:40;;;;;;;5.43;4.50;;;;;;;;;;4901531;29;20355;-61
2024/01/17 21:17:06;;;;;;;5.43;4.45;;;;;;;;;;4901134;29;20115;-73
2024/01/17 21:19:31;;;;;;;5.20;4.30;;;;;;;;;;4901212;29;20036;-67
2024/01/17 21:21:57;;;;;;;4.70;4.07;;;;;;;;;;4901180;29;20032;-67
2024/01/17 21:24:22;;;;;;;6.57;4.60;;;;;;;;;;4901526;29;20039;-60
2024/01/17 21:26:48;;;;;;;6.05;4.50;;;;;;;;;;4901014;29;20036;-61
2024/01/17 21:29:14;;;;;;;5.18;4.30;;;;;;;;;;4900842;29;20029;-60
2024/01/17 21:31:40;;;;;;;6.28;4.18;;;;;;;;;;4900823;29;20086;-66
2024/01/17 21:34:06;;;;;;;5.88;4.22;;;;;;;;;;4900779;29;20031;-59
2024/01/17 21:36:34;;;;;;;6.47;4.50;;;;;;;;;;4900499;29;20048;-59
2024/01/17 21:38:59;;;;;;;7.45;4.55;;;;;;;;;;4900694;29;20029;-71
2024/01/17 21:41:28;;;;;;;5.75;4.07;;;;;;;;;;4901038;29;20501;-62
2024/01/17 21:43:55;;;;;;;5.10;4.15;;;;;;;;;;4900802;29;20028;-60
2024/01/17 21:46:21;;;;;;;6.55;4.45;;;;;;;;;;4883965;29;20123;-60
2024/01/17 21:48:46;;;;;;;6.75;4.13;;;;;;;;;;4900490;29;20116;-60
2024/01/17 21:51:13;;;;;;;5.28;3.90;;;;;;;;;;4900342;29;20039;-60
2024/01/17 21:53:41;;;;;;;4.78;4.03;;;;;;;;;;4900516;29;20485;-59
2024/01/17 21:56:08;;;;;;;5.97;4.45;;;;;;;;;;4900271;29;20081;-61
2024/01/17 21:58:33;;;;;;;7.03;4.10;;;;;;;;;;4900579;29;20040;-59
2024/01/17 22:00:59;;;;;;;6.30;4.45;;;;;;;;;;4900885;29;20032;-60
2024/01/17 22:03:24;;;;;;;5.32;3.88;;;;;;;;;;4900523;29;20029;-65
2024/01/17 22:05:50;;;;;;;5.45;4.05;;;;;;;;;;4900311;29;20049;-60
2024/01/17 22:08:16;;;;;;;5.15;4.20;;;;;;;;;;4900403;29;20025;-60
2024/01/17 22:10:41;;;;;;;4.35;3.92;;;;;;;;;;4906531;29;20048;-60
2024/01/17 22:13:07;;;;;;;6.75;4.28;;;;;;;;;;4918376;29;21142;-61
2024/01/17 22:15:32;;;;;;;6.22;4.30;;;;;;;;;;4917751;29;20432;-71
2024/01/17 22:17:58;;;;;;;5.03;3.95;;;;;;;;;;4902224;29;20489;-69
2024/01/17 22:20:23;;;;;;;6.20;4.45;;;;;;;;;;4918959;29;20024;-62
2024/01/17 22:22:49;;;;;;;4.53;4.03;;;;;;;;;;4918078;29;20036;-70
2024/01/17 22:25:15;;;;;;;4.50;3.85;;;;;;;;;;4918831;29;20028;-67
2024/01/17 22:27:40;;;;;;;5.22;4.10;;;;;;;;;;4918749;29;20032;-60
2024/01/17 22:30:09;;;;;;;5.15;4.20;;;;;;;;;;4918862;29;20028;-61
2024/01/17 22:32:35;;;;;;;5.72;4.38;;;;;;;;;;4918644;29;20123;-60
2024/01/17 22:35:01;;;;;;;5.00;4.10;;;;;;;;;;4918114;29;20042;-61
2024/01/17 22:37:27;;;;;;;4.95;4.07;;;;;;;;;;4918195;29;20032;-61
2024/01/17 22:39:52;;;;;;;5.20;3.88;;;;;;;;;;4918574;29;20024;-72
2024/01/17 22:42:18;;;;;;;7.13;4.40;;;;;;;;;;4918776;29;20020;-62
2024/01/17 22:44:43;;;;;;;6.75;4.60;;;;;;;;;;4901919;29;20039;-61
2024/01/17 22:47:09;;;;;;;5.07;4.03;;;;;;;;;;4918434;29;20075;-62
2024/01/17 22:49:34;;;;;;;4.32;3.90;;;;;;;;;;4918453;29;20025;-61
2024/01/17 22:52:00;;;;;;;4.78;3.95;;;;;;;;;;4918549;29;20056;-62
2024/01/17 22:54:26;;;;;;;5.78;4.00;;;;;;;;;;4918406;29;20055;-61
2024/01/17 22:56:52;;;;;;;5.30;4.13;;;;;;;;;;4917454;29;20093;-62
2024/01/17 22:59:18;;;;;;;5.78;4.18;;;;;;;;;;4918315;29;20032;-62
2024/01/17 23:01:46;;;;;;;5.88;4.47;;;;;;;;;;4918277;29;20060;-61
2024/01/17 23:04:11;;;;;;;6.00;4.25;;;;;;;;;;4918195;29;20028;-62
2024/01/17 23:06:37;;;;;;;5.30;3.80;;;;;;;;;;4917535;29;20024;-61
2024/01/17 23:09:03;;;;;;;5.50;4.07;;;;;;;;;;4918047;29;20166;-61
2024/01/17 23:11:29;;;;;;;4.78;4.13;;;;;;;;;;4917978;29;20055;-61
2024/01/17 23:13:55;;;;;;;5.53;4.20;;;;;;;;;;4918114;29;20040;-61
2024/01/17 23:16:22;;;;;;;5.28;3.95;;;;;;;;;;4917875;29;20405;-61
2024/01/17 23:18:48;;;;;;;5.53;4.20;;;;;;;;;;4918228;29;20034;-61
2024/01/17 23:21:13;;;;;;;5.90;4.03;;;;;;;;;;4900980;29;20536;-60
2024/01/17 23:23:39;;;;;;;5.10;4.00;;;;;;;;;;4917859;29;20107;-61
2024/01/17 23:26:04;;;;;;;5.78;3.60;;;;;;;;;;4917875;29;20123;-62
2024/01/17 23:28:30;;;;;;;6.13;3.92;;;;;;;;;;4900680;29;20020;-61
2024/01/17 23:30:56;;;;;;;4.70;4.10;;;;;;;;;;4917764;29;20390;-61
2024/01/17 23:33:21;;;;;;;4.63;4.00;;;;;;;;;;4917977;29;20032;-61
2024/01/17 23:35:47;;;;;;;6.18;4.10;;;;;;;;;;4916483;29;20025;-61
2024/01/17 23:38:12;;;;;;;6.10;4.13;;;;;;;;;;4917572;29;20032;-60
2024/01/17 23:40:38;;;;;;;4.38;3.97;;;;;;;;;;4917621;29;20095;-61
2024/01/17 23:43:04;;;;;;;5.38;4.00;;;;;;;;;;4918081;29;20036;-61
2024/01/17 23:45:30;;;;;;;6.35;3.90;;;;;;;;;;4917921;29;20442;-61
2024/01/17 23:47:56;;;;;;;5.68;3.90;;;;;;;;;;4917698;29;20024;-61
2024/01/17 23:50:21;;;;;;;4.78;4.13;;;;;;;;;;4917462;29;20433;-62
2024/01/17 23:52:47;;;;;;;4.50;3.55;;;;;;;;;;4917391;29;20465;-61
2024/01/17 23:55:14;;;;;;;4.35;3.78;;;;;;;;;;4917291;29;20083;-64
2024/01/17 23:57:39;;;;;;;6.00;4.00;;;;;;;;;;4917177;29;20071;-63
